createdAt,value
2018-06-10T00:02:25.095Z,80.80
2018-06-10T00:04:53.387Z,80.90
2018-06-10T00:07:21.662Z,81.20
2018-06-10T00:09:50.286Z,81.20
2018-06-10T00:12:18.774Z,80.90
2018-06-10T00:14:47.082Z,80.70
2018-06-10T00:17:15.337Z,80.90
2018-06-10T00:19:43.618Z,80.90
2018-06-10T00:22:11.873Z,80.90
2018-06-10T00:24:40.133Z,81.40
2018-06-10T00:27:08.381Z,81.70
2018-06-10T00:29:36.662Z,81.60
2018-06-10T00:32:04.900Z,81.80
2018-06-10T00:34:33.157Z,82.30
2018-06-10T00:37:01.402Z,81.40
2018-06-10T00:39:29.689Z,81.80
2018-06-10T00:41:57.981Z,81.90
2018-06-10T00:44:26.238Z,82.30
2018-06-10T00:46:54.504Z,82.00
2018-06-10T00:49:22.753Z,82.10
2018-06-10T00:51:51.030Z,81.80
2018-06-10T00:54:19.256Z,82.10
2018-06-10T00:56:52.079Z,82.50
2018-06-10T00:59:20.322Z,83.00
2018-06-10T01:01:48.602Z,82.60
2018-06-10T01:04:16.857Z,82.30
2018-06-10T01:06:45.092Z,81.80
2018-06-10T01:09:13.405Z,81.40
2018-06-10T01:11:41.706Z,81.50
2018-06-10T01:14:09.950Z,81.70
2018-06-10T01:16:38.206Z,81.80
2018-06-10T01:19:06.477Z,81.90
2018-06-10T01:21:34.761Z,81.60
2018-06-10T01:24:03.006Z,81.20
2018-06-10T01:26:36.662Z,81.50
2018-06-10T01:29:04.913Z,81.80
2018-06-10T01:31:33.186Z,81.70
2018-06-10T01:34:01.443Z,82.10
2018-06-10T01:36:29.700Z,82.00
2018-06-10T01:38:57.965Z,82.50
2018-06-10T01:41:26.224Z,82.20
2018-06-10T01:43:54.481Z,81.90
2018-06-10T01:46:22.748Z,81.90
2018-06-10T01:48:50.993Z,82.10
2018-06-10T01:51:19.257Z,82.20
2018-06-10T01:53:47.514Z,82.60
2018-06-10T01:56:15.793Z,82.80
2018-06-10T01:58:44.030Z,81.70
2018-06-10T02:01:12.293Z,82.10
2018-06-10T02:03:40.593Z,82.50
2018-06-10T02:06:08.851Z,82.50
2018-06-10T02:08:37.117Z,82.30
2018-06-10T02:11:05.378Z,82.10
2018-06-10T02:13:33.642Z,82.10
2018-06-10T02:16:01.892Z,82.10
2018-06-10T02:18:30.132Z,82.00
2018-06-10T02:20:58.394Z,82.30
2018-06-10T02:23:26.663Z,82.30
2018-06-10T02:25:54.938Z,82.20
2018-06-10T02:28:23.176Z,82.00
2018-06-10T02:30:51.439Z,81.50
2018-06-10T02:33:19.742Z,81.60
2018-06-10T02:35:47.995Z,82.30
2018-06-10T02:38:16.274Z,82.10
2018-06-10T02:40:44.538Z,82.50
2018-06-10T02:43:12.797Z,82.40
2018-06-10T02:45:41.078Z,82.30
2018-06-10T02:48:09.421Z,82.30
2018-06-10T02:50:37.686Z,82.70
2018-06-10T02:53:05.952Z,82.80
2018-06-10T02:55:34.243Z,82.90
2018-06-10T02:58:02.550Z,83.10
2018-06-10T03:00:30.839Z,83.50
2018-06-10T03:02:59.074Z,83.90
2018-06-10T03:05:27.351Z,84.10
2018-06-10T03:07:55.679Z,83.90
2018-06-10T03:10:23.877Z,83.70
2018-06-10T03:12:52.134Z,83.70
2018-06-10T03:15:20.402Z,84.20
2018-06-10T03:17:48.667Z,84.20
2018-06-10T03:20:16.943Z,83.90
2018-06-10T03:22:45.195Z,83.10
2018-06-10T03:25:13.473Z,82.40
2018-06-10T03:30:09.730Z,83.00
2018-06-10T03:32:37.968Z,82.90
2018-06-10T03:35:06.203Z,82.90
2018-06-10T03:37:34.472Z,83.00
2018-06-10T03:40:02.715Z,82.90
2018-06-10T03:42:30.962Z,83.10
2018-06-10T03:44:59.225Z,82.20
2018-06-10T03:47:27.494Z,82.40
2018-06-10T03:49:55.774Z,82.30
2018-06-10T03:52:24.029Z,82.40
2018-06-10T03:54:52.285Z,82.10
2018-06-10T03:57:20.553Z,82.10
2018-06-10T03:59:48.808Z,82.10
2018-06-10T04:02:17.050Z,82.00
2018-06-10T04:04:45.301Z,82.40
2018-06-10T04:07:13.553Z,82.60
2018-06-10T04:09:41.837Z,82.40
2018-06-10T04:12:10.082Z,82.20
2018-06-10T04:14:38.334Z,82.50
2018-06-10T04:17:06.588Z,83.00
2018-06-10T04:19:34.853Z,83.10
2018-06-10T04:22:03.136Z,83.60
2018-06-10T04:24:31.363Z,83.60
2018-06-10T04:26:59.621Z,83.30
2018-06-10T04:29:27.910Z,83.50
2018-06-10T04:31:56.198Z,83.20
2018-06-10T04:34:24.441Z,82.40
2018-06-10T04:36:52.708Z,81.90
2018-06-10T04:39:21.171Z,81.70
2018-06-10T04:41:49.400Z,81.40
2018-06-10T04:44:17.636Z,81.90
2018-06-10T04:46:45.935Z,82.10
2018-06-10T04:49:14.194Z,82.00
2018-06-10T04:51:42.457Z,82.10
2018-06-10T04:54:10.721Z,82.10
2018-06-10T04:56:39.013Z,81.90
2018-06-10T04:59:07.337Z,82.00
2018-06-10T05:01:35.615Z,82.20
2018-06-10T05:04:03.865Z,82.20
2018-06-10T05:06:32.142Z,82.30
2018-06-10T05:09:00.394Z,82.80
2018-06-10T05:11:28.637Z,82.40
2018-06-10T05:13:56.932Z,82.40
2018-06-10T05:16:25.230Z,82.00
2018-06-10T05:18:53.493Z,82.00
2018-06-10T05:21:21.743Z,82.90
2018-06-10T05:23:50.024Z,82.40
2018-06-10T05:26:18.275Z,82.00
2018-06-10T05:31:14.530Z,81.60
2018-06-10T05:33:42.827Z,81.50
2018-06-10T05:36:11.095Z,81.60
2018-06-10T05:38:39.355Z,81.30
2018-06-10T05:41:07.625Z,82.10
2018-06-10T05:43:35.886Z,80.80
2018-06-10T05:46:04.186Z,81.10
2018-06-10T05:48:32.425Z,80.90
2018-06-10T05:51:00.689Z,80.90
2018-06-10T05:53:28.937Z,81.10
2018-06-10T05:55:57.194Z,80.40
2018-06-10T05:58:25.450Z,80.10
2018-06-10T06:00:53.713Z,80.00
2018-06-10T06:03:21.997Z,80.30
2018-06-10T06:05:50.370Z,80.30
2018-06-10T06:08:18.682Z,80.10
2018-06-10T06:10:46.917Z,80.60
2018-06-10T06:13:15.268Z,80.20
2018-06-10T06:15:43.506Z,80.60
2018-06-10T06:18:11.805Z,79.60
2018-06-10T06:20:40.114Z,79.60
2018-06-10T06:23:08.440Z,80.20
2018-06-10T06:28:04.708Z,80.10
2018-06-10T06:30:32.985Z,78.20
2018-06-10T06:33:01.336Z,78.90
2018-06-10T06:35:29.590Z,78.20
2018-06-10T06:37:57.894Z,78.40
2018-06-10T06:40:26.183Z,78.20
2018-06-10T06:42:54.441Z,77.50
2018-06-10T06:45:22.878Z,77.30
2018-06-10T06:47:51.105Z,76.00
2018-06-10T06:50:19.377Z,76.50
2018-06-10T06:52:47.627Z,76.00
2018-06-10T06:55:15.902Z,77.10
2018-06-10T06:57:44.161Z,75.90
2018-06-10T07:00:12.556Z,75.00
2018-06-10T07:02:40.833Z,75.40
2018-06-10T07:05:09.214Z,75.70
2018-06-10T07:07:37.468Z,76.50
2018-06-10T07:10:05.768Z,76.70
2018-06-10T07:12:34.185Z,74.70
2018-06-10T07:15:02.446Z,74.10
2018-06-10T07:17:30.702Z,72.50
2018-06-10T07:19:59.020Z,73.40
2018-06-10T07:22:27.285Z,71.40
2018-06-10T07:24:55.584Z,70.90
2018-06-10T07:27:23.843Z,72.40
2018-06-10T07:29:52.109Z,70.60
2018-06-10T07:32:20.477Z,69.10
2018-06-10T07:34:48.717Z,68.30
2018-06-10T07:37:16.978Z,68.10
2018-06-10T07:39:45.317Z,69.40
2018-06-10T07:42:13.635Z,67.80
2018-06-10T07:44:41.992Z,69.50
2018-06-10T07:47:10.270Z,68.70
2018-06-10T07:49:38.526Z,68.00
2018-06-10T07:52:06.795Z,68.10
2018-06-10T07:54:35.541Z,68.40
2018-06-10T07:57:03.845Z,65.30
2018-06-10T07:59:32.095Z,66.10
2018-06-10T08:02:00.330Z,67.10
2018-06-10T08:04:29.147Z,68.60
2018-06-10T08:06:57.638Z,68.10
2018-06-10T08:09:25.930Z,66.00
2018-06-10T08:11:54.259Z,64.40
2018-06-10T08:14:22.866Z,63.00
2018-06-10T08:16:51.101Z,63.90
2018-06-10T08:19:19.456Z,65.10
2018-06-10T08:21:47.770Z,65.60
2018-06-10T08:24:16.053Z,64.60
2018-06-10T08:26:44.308Z,65.00
2018-06-10T08:29:12.546Z,62.20
2018-06-10T08:31:40.808Z,63.80
2018-06-10T08:34:09.062Z,64.40
2018-06-10T08:36:37.309Z,65.10
2018-06-10T08:39:08.150Z,63.00
2018-06-10T08:41:36.551Z,63.10
2018-06-10T08:44:04.796Z,63.10
2018-06-10T08:46:33.042Z,62.80
2018-06-10T08:49:01.395Z,63.70
2018-06-10T08:51:29.674Z,63.70
2018-06-10T08:53:57.901Z,62.70
2018-06-10T08:56:26.157Z,64.70
2018-06-10T08:58:54.422Z,64.00
2018-06-10T09:01:22.679Z,63.40
2018-06-10T09:03:50.910Z,61.80
2018-06-10T09:06:19.165Z,59.80
2018-06-10T09:08:47.553Z,60.00
2018-06-10T09:11:15.713Z,60.70
2018-06-10T09:13:43.991Z,61.00
2018-06-10T09:16:12.558Z,62.40
2018-06-10T09:18:40.871Z,59.30
2018-06-10T09:21:09.125Z,59.70
2018-06-10T09:23:37.389Z,62.30
2018-06-10T09:26:05.648Z,62.60
2018-06-10T09:28:33.902Z,60.30
2018-06-10T09:31:02.159Z,61.40
2018-06-10T09:33:30.445Z,59.90
2018-06-10T15:20:22.818Z,65.60
2018-06-10T15:22:51.175Z,64.60
2018-06-10T15:25:19.501Z,64.10
2018-06-10T15:27:47.721Z,63.30
2018-06-10T15:30:15.982Z,63.10
2018-06-10T15:32:44.206Z,64.30
2018-06-10T15:35:12.501Z,64.50
2018-06-10T15:37:40.769Z,62.90
2018-06-10T15:40:09.009Z,62.70
2018-06-10T15:42:37.281Z,62.80
2018-06-10T15:45:05.607Z,61.20
2018-06-10T15:47:33.814Z,62.00
2018-06-10T15:50:02.330Z,61.90
2018-06-10T15:52:30.586Z,59.40
2018-06-10T15:54:58.927Z,59.90
2018-06-10T15:57:27.162Z,60.20
2018-06-10T15:59:55.453Z,60.70
2018-06-10T16:02:23.683Z,61.60
2018-06-10T16:04:51.993Z,61.10
2018-06-10T16:07:20.211Z,61.40
2018-06-10T16:09:48.496Z,60.70
2018-06-10T16:12:16.729Z,59.90
2018-06-10T16:17:12.957Z,60.20
2018-06-10T16:19:41.191Z,59.60
2018-06-10T16:22:09.467Z,58.50
2018-06-10T16:24:37.677Z,58.40
2018-06-10T16:27:05.971Z,58.40
2018-06-10T16:29:34.210Z,59.10
2018-06-10T16:32:02.457Z,59.30
2018-06-10T16:36:58.722Z,59.00
2018-06-10T16:39:26.949Z,58.30
2018-06-10T16:41:55.222Z,58.60
2018-06-10T16:44:23.449Z,59.00
2018-06-10T16:49:19.733Z,59.30
2018-06-10T16:51:47.959Z,59.30
2018-06-10T16:54:16.197Z,59.50
2018-06-10T16:56:44.419Z,59.50
2018-06-10T16:59:12.705Z,58.70
2018-06-10T17:01:41.010Z,58.50
2018-06-10T17:04:09.207Z,59.00
2018-06-10T17:06:37.405Z,58.70
2018-06-10T17:09:08.015Z,58.90
2018-06-10T17:11:36.593Z,59.00
2018-06-10T17:14:05.097Z,59.20
2018-06-10T17:16:33.350Z,59.60
2018-06-10T17:19:01.703Z,59.50
2018-06-10T17:21:29.973Z,60.20
2018-06-10T17:23:58.189Z,59.20
2018-06-10T17:28:54.380Z,59.10
2018-06-10T17:31:22.625Z,59.80
2018-06-10T17:33:50.855Z,59.40
2018-06-10T17:36:19.077Z,59.60
2018-06-10T17:38:47.350Z,60.10
2018-06-10T17:41:15.581Z,60.20
2018-06-10T17:43:43.806Z,60.10
2018-06-10T17:46:12.206Z,60.30
2018-06-10T17:48:40.426Z,60.60
2018-06-10T17:51:08.673Z,60.70
2018-06-10T17:56:05.141Z,61.10
2018-06-10T17:58:33.377Z,61.20
2018-06-10T18:01:01.624Z,61.10
2018-06-10T18:03:29.835Z,61.20
2018-06-10T18:05:58.088Z,61.30
2018-06-10T18:08:26.326Z,61.40
2018-06-10T18:10:54.542Z,61.50
2018-06-10T18:13:22.804Z,61.60
2018-06-10T18:18:19.077Z,61.70
2018-06-10T18:20:47.375Z,62.40
2018-06-10T18:23:15.637Z,62.90
2018-06-10T18:25:44.120Z,62.80
2018-06-10T18:28:12.424Z,63.20
2018-06-10T18:30:40.763Z,63.00
2018-06-10T18:33:09.042Z,62.60
2018-06-10T18:35:37.261Z,63.50
2018-06-10T18:38:05.696Z,62.80
2018-06-10T18:40:33.924Z,62.70
2018-06-10T18:43:03.454Z,63.10
2018-06-10T18:45:31.733Z,63.80
2018-06-10T18:48:00.001Z,64.10
2018-06-10T18:50:28.549Z,64.50
2018-06-10T18:55:24.902Z,64.80
2018-06-10T18:57:53.133Z,65.20
2018-06-10T19:00:21.373Z,65.40
2018-06-10T19:02:49.622Z,65.50
2018-06-10T19:05:17.899Z,65.70
2018-06-10T19:07:46.619Z,65.20
2018-06-10T19:10:14.972Z,65.10
2018-06-10T19:12:43.157Z,65.00
2018-06-10T19:15:11.398Z,65.20
2018-06-10T19:17:39.626Z,65.80
2018-06-10T19:20:07.931Z,66.40
2018-06-10T19:22:36.151Z,67.60
2018-06-10T19:25:04.402Z,67.80
2018-06-10T19:27:32.681Z,67.90
2018-06-10T19:30:00.940Z,67.80
2018-06-10T19:32:29.149Z,67.70
2018-06-10T19:34:57.409Z,68.70
2018-06-10T19:39:53.789Z,69.20
2018-06-10T19:42:22.014Z,68.10
2018-06-10T19:44:50.257Z,67.30
2018-06-10T19:47:18.489Z,66.60
2018-06-10T19:49:46.729Z,66.20
2018-06-10T19:52:14.946Z,65.80
2018-06-10T19:54:43.177Z,65.50
2018-06-10T19:57:11.446Z,65.30
2018-06-10T19:59:39.711Z,65.10
